createdAt,value
2023-03-06T00:01:08.319Z,7.00
2023-03-06T00:06:11.278Z,7.30
2023-03-06T00:11:15.674Z,11.00
2023-03-06T00:16:18.598Z,13.70
2023-03-06T00:21:21.586Z,9.70
2023-03-06T00:26:24.583Z,6.50
2023-03-06T00:31:27.508Z,8.20
2023-03-06T00:41:33.287Z,10.00
2023-03-06T00:46:36.289Z,9.80
2023-03-06T00:51:39.195Z,7.70
2023-03-06T00:56:42.097Z,8.70
2023-03-06T01:01:45.367Z,8.60
2023-03-06T01:06:48.987Z,7.70
2023-03-06T01:11:51.826Z,5.40
2023-03-06T01:16:54.729Z,5.30
2023-03-06T01:21:57.736Z,8.80
2023-03-06T01:27:00.522Z,7.50
2023-03-06T01:32:03.645Z,5.30
2023-03-06T01:37:06.764Z,5.00
2023-03-06T01:42:09.762Z,7.90
2023-03-06T01:47:12.668Z,3.70
2023-03-06T01:52:19.983Z,5.30
2023-03-06T01:57:30.662Z,7.50
2023-03-06T02:02:33.796Z,7.30
2023-03-06T02:07:38.615Z,7.80
2023-03-06T02:12:43.839Z,7.00
2023-03-06T02:17:48.562Z,6.50
2023-03-06T02:23:06.377Z,6.20
2023-03-06T02:28:15.632Z,8.90
2023-03-06T02:33:22.376Z,5.90
2023-03-06T02:38:48.066Z,5.50
2023-03-06T02:43:52.155Z,6.90
2023-03-06T02:48:55.684Z,9.40
2023-03-06T02:53:58.508Z,8.40
2023-03-06T02:59:01.410Z,6.50
2023-03-06T03:04:05.377Z,7.70
2023-03-06T03:09:08.249Z,8.30
2023-03-06T03:14:11.145Z,8.20
2023-03-06T03:19:14.567Z,7.90
2023-03-06T03:24:17.508Z,6.60
2023-03-06T03:34:23.786Z,7.20
2023-03-06T03:39:26.689Z,6.00
2023-03-06T03:44:29.594Z,6.10
2023-03-06T03:49:32.499Z,5.80
2023-03-06T03:54:35.509Z,6.80
2023-03-06T03:59:38.413Z,6.40
2023-03-06T04:04:41.347Z,5.90
2023-03-06T04:14:47.038Z,5.40
2023-03-06T04:19:49.916Z,6.00
2023-03-06T04:24:52.821Z,8.30
2023-03-06T04:29:56.568Z,7.40
2023-03-06T04:34:59.448Z,4.90
2023-03-06T04:40:02.351Z,10.60
2023-03-06T04:50:09.742Z,5.80
2023-03-06T04:55:14.914Z,5.10
2023-03-06T05:00:30.466Z,9.40
2023-03-06T05:05:33.350Z,9.60
2023-03-06T05:10:36.177Z,8.00
2023-03-06T05:15:42.256Z,8.90
2023-03-06T05:20:45.142Z,9.80
2023-03-06T05:25:48.035Z,5.80
2023-03-06T05:30:50.938Z,8.00
2023-03-06T05:35:53.894Z,11.70
2023-03-06T05:46:07.230Z,6.60
2023-03-06T05:51:11.260Z,13.30
2023-03-06T05:56:14.950Z,7.50
2023-03-06T06:01:20.351Z,9.00
2023-03-06T06:06:23.258Z,12.30
2023-03-06T06:11:26.152Z,10.90
2023-03-06T06:16:29.053Z,11.40
2023-03-06T06:21:31.965Z,7.40
2023-03-06T06:26:35.289Z,6.90
2023-03-06T06:31:39.707Z,7.10
2023-03-06T06:36:42.579Z,6.80
2023-03-06T06:42:05.521Z,6.90
2023-03-06T06:47:25.060Z,7.90
2023-03-06T06:52:28.408Z,8.30
2023-03-06T06:57:31.314Z,6.30
2023-03-06T07:02:34.587Z,7.90
2023-03-06T07:07:42.626Z,5.70
2023-03-06T07:12:45.849Z,5.60
2023-03-06T07:17:50.248Z,7.70
2023-03-06T07:22:53.351Z,5.80
2023-03-06T07:27:56.184Z,9.90
2023-03-06T07:33:00.146Z,8.20
2023-03-06T07:38:03.163Z,21.70
2023-03-06T07:43:18.758Z,12.20
2023-03-06T07:48:24.580Z,10.50
2023-03-06T07:53:28.231Z,7.70
2023-03-06T07:58:31.118Z,8.10
2023-03-06T08:03:35.092Z,8.80
2023-03-06T08:08:39.991Z,8.90
2023-03-06T08:13:43.238Z,8.50
2023-03-06T08:28:54.596Z,7.70
2023-03-06T08:34:00.109Z,8.50
2023-03-06T08:39:04.389Z,5.40
2023-03-06T08:44:07.287Z,6.60
2023-03-06T08:49:12.959Z,6.70
2023-03-06T08:54:17.423Z,7.20
2023-03-06T08:59:21.742Z,5.80
2023-03-06T09:04:24.949Z,6.90
2023-03-06T09:14:31.546Z,5.10
2023-03-06T09:19:34.604Z,4.80
2023-03-06T09:24:37.447Z,7.00
2023-03-06T09:29:43.289Z,4.50
2023-03-06T09:34:46.322Z,3.90
2023-03-06T09:39:49.331Z,3.00
2023-03-06T09:44:59.153Z,3.90
2023-03-06T09:50:40.152Z,7.50
2023-03-06T09:55:50.397Z,3.30
2023-03-06T10:01:24.824Z,6.70
2023-03-06T10:06:37.622Z,4.10
2023-03-06T10:12:18.516Z,3.90
2023-03-06T10:17:23.880Z,3.40
2023-03-06T10:22:31.736Z,9.20
2023-03-06T10:27:37.152Z,9.20
2023-03-06T10:32:48.347Z,4.20
2023-03-06T10:37:59.930Z,3.70
2023-03-06T10:43:11.459Z,3.10
2023-03-06T10:48:20.406Z,3.50
2023-03-06T10:53:31.338Z,3.70
2023-03-06T10:58:34.379Z,4.40
2023-03-06T11:03:37.517Z,3.00
2023-03-06T11:08:42.857Z,3.50
2023-03-06T11:13:57.782Z,3.70
2023-03-06T11:19:04.155Z,3.50
2023-03-06T11:24:20.166Z,3.80
2023-03-06T11:29:36.302Z,4.50
2023-03-06T11:34:52.402Z,3.50
2023-03-06T11:40:13.107Z,3.90
2023-03-06T11:45:25.608Z,4.00
2023-03-06T11:50:43.783Z,3.10
2023-03-06T11:56:00.039Z,4.00
2023-03-06T12:01:17.287Z,2.90
2023-03-06T12:06:35.122Z,2.80
2023-03-06T12:11:54.346Z,3.40
2023-03-06T12:17:02.117Z,3.00
2023-03-06T12:22:16.802Z,5.30
2023-03-06T12:27:32.851Z,3.60
2023-03-06T12:32:49.515Z,3.50
2023-03-06T12:37:58.591Z,14.00
2023-03-06T12:43:20.474Z,7.00
2023-03-06T12:48:28.225Z,4.80
2023-03-06T12:53:33.062Z,2.40
2023-03-06T12:58:47.141Z,2.40
2023-03-06T13:04:16.487Z,2.80
2023-03-06T13:09:28.762Z,3.30
2023-03-06T13:14:42.401Z,3.30
2023-03-06T13:20:13.124Z,2.70
2023-03-06T13:25:19.081Z,3.30
2023-03-06T13:30:27.296Z,2.50
2023-03-06T13:35:30.108Z,3.00
2023-03-06T13:40:35.340Z,2.70
2023-03-06T13:45:43.871Z,2.10
2023-03-06T13:50:47.771Z,5.30
2023-03-06T13:56:27.960Z,9.10
2023-03-06T14:02:12.357Z,6.00
2023-03-06T14:07:27.422Z,4.70
2023-03-06T14:12:38.158Z,4.40
2023-03-06T14:17:53.304Z,5.30
2023-03-06T14:23:22.447Z,3.80
2023-03-06T14:28:29.534Z,5.70
2023-03-06T14:33:56.655Z,6.90
2023-03-06T14:39:04.394Z,8.80
2023-03-06T14:44:17.812Z,6.30
2023-03-06T14:49:23.372Z,8.00
2023-03-06T14:54:31.109Z,6.00
2023-03-06T14:59:47.349Z,7.20
2023-03-06T15:05:25.121Z,6.80
2023-03-06T15:10:33.260Z,6.00
2023-03-06T15:15:36.213Z,7.80
2023-03-06T15:20:43.702Z,8.90
2023-03-06T15:25:52.766Z,11.00
2023-03-06T15:31:10.896Z,13.60
2023-03-06T15:36:27.676Z,9.60
2023-03-06T15:41:35.766Z,14.40
2023-03-06T15:46:38.739Z,13.30
2023-03-06T15:51:41.567Z,13.50
2023-03-06T15:56:58.045Z,15.50
2023-03-06T16:02:11.201Z,18.70
2023-03-06T16:07:14.619Z,18.00
2023-03-06T16:12:20.594Z,14.40
2023-03-06T16:17:23.393Z,11.60
2023-03-06T16:22:26.426Z,13.60
2023-03-06T16:27:29.316Z,16.50
2023-03-06T16:32:32.153Z,13.70
2023-03-06T16:37:35.106Z,20.50
2023-03-06T16:42:38.114Z,43.30
2023-03-06T16:47:41.935Z,14.50
2023-03-06T16:52:44.739Z,13.60
2023-03-06T16:57:47.913Z,15.60
2023-03-06T17:07:55.353Z,21.40
2023-03-06T17:12:58.305Z,20.90
2023-03-06T17:18:01.116Z,23.50
2023-03-06T17:23:04.003Z,24.90
2023-03-06T17:28:06.805Z,42.90
2023-03-06T17:33:09.811Z,31.40
2023-03-06T17:38:12.690Z,23.10
2023-03-06T17:43:15.627Z,18.90
2023-03-06T17:48:18.521Z,23.80
2023-03-06T17:53:22.346Z,42.20
2023-03-06T17:58:26.388Z,39.70
2023-03-06T18:03:29.280Z,31.50
2023-03-06T18:08:32.445Z,31.40
2023-03-06T18:13:39.288Z,43.70
2023-03-06T18:18:42.391Z,38.20
2023-03-06T18:23:45.295Z,33.00
2023-03-06T18:28:52.294Z,37.60
2023-03-06T18:33:57.604Z,35.00
2023-03-06T18:39:03.793Z,24.10
2023-03-06T18:44:07.003Z,34.20
2023-03-06T18:49:11.437Z,34.30
2023-03-06T18:54:14.394Z,38.70
2023-03-06T18:59:18.950Z,26.10
2023-03-06T19:04:22.067Z,25.60
2023-03-06T19:09:24.947Z,23.30
2023-03-06T19:14:28.728Z,24.60
2023-03-06T19:19:31.577Z,24.80
2023-03-06T19:24:34.595Z,20.80
2023-03-06T19:29:38.718Z,23.70
2023-03-06T19:34:41.624Z,18.00
2023-03-06T19:39:44.526Z,23.60
2023-03-06T19:44:47.430Z,21.00
2023-03-06T19:49:50.339Z,34.80
2023-03-06T19:59:58.505Z,27.10
2023-03-06T20:05:01.608Z,27.50
2023-03-06T20:10:05.176Z,28.60
2023-03-06T20:15:08.619Z,28.70
2023-03-06T20:20:12.513Z,44.80
2023-03-06T20:25:15.589Z,32.70
2023-03-06T20:30:18.466Z,29.60
2023-03-06T20:35:21.697Z,27.90
2023-03-06T20:40:24.679Z,29.60
2023-03-06T20:45:27.999Z,30.60
2023-03-06T20:50:30.904Z,43.40
2023-03-06T20:55:37.647Z,33.70
2023-03-06T21:00:41.492Z,35.10
2023-03-06T21:05:47.781Z,40.80
2023-03-06T21:10:51.015Z,40.60
2023-03-06T21:15:53.963Z,65.40
2023-03-06T21:20:56.823Z,41.70
2023-03-06T21:25:59.842Z,47.10
2023-03-06T21:36:06.182Z,60.50
2023-03-06T21:41:16.942Z,55.20
2023-03-06T21:46:19.876Z,56.30
2023-03-06T21:51:23.817Z,49.30
2023-03-06T21:56:28.611Z,53.90
2023-03-06T22:01:31.551Z,61.80
2023-03-06T22:06:34.535Z,45.60
2023-03-06T22:11:37.537Z,38.50
2023-03-06T22:16:40.907Z,39.00
2023-03-06T22:21:43.756Z,55.90
2023-03-06T22:26:46.656Z,39.70
2023-03-06T22:36:53.279Z,43.00
2023-03-06T22:41:56.771Z,57.60
2023-03-06T22:46:59.695Z,39.20
2023-03-06T22:52:02.600Z,39.40
2023-03-06T22:57:05.507Z,36.20
2023-03-06T23:02:08.415Z,38.10
2023-03-06T23:07:11.316Z,27.30
2023-03-06T23:12:14.319Z,25.90
2023-03-06T23:22:20.028Z,37.50
2023-03-06T23:27:22.944Z,40.00
2023-03-06T23:32:25.906Z,37.90
2023-03-06T23:37:28.952Z,40.40
2023-03-06T23:47:35.567Z,61.50
2023-03-06T23:57:41.788Z,32.60
